マヘ島 の空港の天気 - METARとTAF

セーシェル国際空港 ( FSIA / SEZ ) - セーシェル マヘ島
飛行場実況気象(Metar)
観測時間08/22 20:00 SCT (08/22 16:00 UTC)
風向・風速南東 7m/s
視程10km以上
天気現象
少しの雲 雲底高度 370m
全天の4割程度の雲 雲底高度 580m
全天の8割程度の雲 雲底高度 1370m
気温26℃
湿度89%
気圧1012hPa
METARFSIA 221600Z 13013KT 9999 FEW012 SCT019 BKN045 26/24 Q1012 NOSIG
過去の天気等 Google飛行場航空写真 Wunderground天気予報

過去48時間のMETAR

飛行場予報(TAF)
発表時間: 8/22 15:00 SCT (8/22 11:00 UTC)
予報対象時間: 22日16時 SCT ~ 23日16時 SCT
風向・風速南東 5m/s
視程10km以上
少しの雲 雲底高度 340m
全天の4割程度の雲 雲底高度 640m
全天の8割程度の雲 雲底高度 910m
22日18時 SCT ~ 22日22時 SCT に一時的に
視程8000m
天気現象しゅう雨
少しの雲 雲底高度 300m
全天の8割程度の雲 雲底高度 550m
TAF FSIA 221100Z 2212/2312 14009KT 9999 FEW011 SCT021 BKN030
TEMPO 2214/2218 8000 SHRA FEW010 BKN018